Time;durP1;ratioP1;P1;durP2;ratioP2;P2;SDS_P1;SDS_P2;PMS_P1;PMS_P2;Temp;Humidity;BMP_temperature;BMP_pressure;BME280_temperature;BME280_humidity;BME280_pressure;Samples;Min_cycle;Max_cycle;Signal;HPM_P1;HPM_P2
2022/03/28 00:00:17;;;;;;;16.10;7.43;;;;;;;1.96;73.53;96390.91;5107285;28;20408;-74
2022/03/28 00:03:04;;;;;;;20.20;7.32;;;;;;;1.93;73.42;96386.91;5073832;28;20262;-76
2022/03/28 00:05:30;;;;;;;15.30;8.05;;;;;;;1.94;73.60;96387.69;5088729;28;20097;-76
2022/03/28 00:07:55;;;;;;;13.80;7.25;;;;;;;1.87;73.18;96385.88;5088859;28;20044;-75
2022/03/28 00:10:21;;;;;;;15.35;7.13;;;;;;;1.88;73.44;96379.69;5083517;28;20042;-76
2022/03/28 00:12:46;;;;;;;12.98;6.50;;;;;;;1.86;73.16;96381.66;5090882;28;20467;-75
2022/03/28 00:15:12;;;;;;;12.93;6.90;;;;;;;1.86;72.80;96379.06;5085788;28;20036;-76
2022/03/28 00:17:38;;;;;;;13.95;6.78;;;;;;;1.90;72.51;96376.91;5127130;28;20047;-76
2022/03/28 00:20:06;;;;;;;14.68;6.47;;;;;;;1.81;73.26;96373.69;5119420;28;20516;-76
2022/03/28 00:22:32;;;;;;;18.08;7.25;;;;;;;1.81;73.49;96372.84;5103291;28;20044;-76
2022/03/28 00:24:58;;;;;;;15.05;6.50;;;;;;;1.82;72.90;96370.06;5092743;28;20036;-75
2022/03/28 00:27:23;;;;;;;15.90;6.68;;;;;;;1.74;73.14;96367.66;5088692;28;20292;-75
2022/03/28 00:29:49;;;;;;;16.90;7.43;;;;;;;1.70;73.79;96367.22;5094488;28;20489;-75
2022/03/28 00:32:14;;;;;;;17.75;6.18;;;;;;;1.60;73.80;96360.78;5100615;28;20127;-75
2022/03/28 00:34:40;;;;;;;15.68;6.88;;;;;;;1.62;73.68;96364.78;5088656;28;20047;-75
2022/03/28 00:37:06;;;;;;;16.88;6.80;;;;;;;1.66;74.00;96365.22;5088597;28;20044;-77
2022/03/28 00:39:32;;;;;;;21.85;7.32;;;;;;;1.66;73.42;96365.22;5093937;28;20061;-77
2022/03/28 00:41:57;;;;;;;14.40;7.30;;;;;;;1.60;73.94;96365.97;5106825;28;20068;-76
2022/03/28 00:44:23;;;;;;;14.77;7.05;;;;;;;1.51;74.30;96358.34;5095272;28;20486;-76
2022/03/28 00:46:48;;;;;;;17.13;6.40;;;;;;;1.44;74.60;96357.50;5104960;28;20044;-76
2022/03/28 00:49:16;;;;;;;16.70;6.85;;;;;;;1.45;74.41;96359.13;5098204;28;20109;-76
2022/03/28 00:51:42;;;;;;;15.77;6.97;;;;;;;1.48;74.33;96360.50;5088847;28;20048;-77
2022/03/28 00:54:08;;;;;;;13.07;6.22;;;;;;;1.32;74.76;96356.41;5087697;28;20409;-77
2022/03/28 00:56:36;;;;;;;21.50;6.63;;;;;;;1.27;75.31;96351.00;5078747;28;20040;-76
2022/03/28 00:59:02;;;;;;;12.93;6.05;;;;;;;1.26;74.71;96344.22;5104079;28;20485;-76
2022/03/28 01:01:28;;;;;;;13.57;6.65;;;;;;;1.31;75.36;96349.66;5088205;28;20493;-76
2022/03/28 01:03:54;;;;;;;15.43;6.82;;;;;;;1.35;75.58;96343.06;5095744;28;20179;-77
2022/03/28 01:06:20;;;;;;;13.10;6.43;;;;;;;1.30;75.46;96335.06;5109019;28;20058;-77
2022/03/28 01:08:46;;;;;;;17.02;6.55;;;;;;;1.21;75.32;96337.81;5100286;28;20093;-77
2022/03/28 01:11:12;;;;;;;13.73;6.57;;;;;;;1.19;75.58;96334.63;5094760;28;20044;-76
2022/03/28 01:13:40;;;;;;;15.00;6.70;;;;;;;1.25;75.42;96338.25;5080514;28;20050;-76
2022/03/28 01:16:07;;;;;;;17.67;7.18;;;;;;;1.14;75.62;96342.16;5112622;28;20047;-77
2022/03/28 01:18:33;;;;;;;14.45;6.45;;;;;;;1.06;76.47;96333.72;5090944;28;20035;-75
2022/03/28 01:21:00;;;;;;;12.88;6.75;;;;;;;1.04;76.42;96337.28;5102425;28;20044;-75
2022/03/28 01:23:26;;;;;;;18.08;6.70;;;;;;;1.00;75.98;96330.88;5085577;28;20040;-75
2022/03/28 01:25:52;;;;;;;13.80;6.68;;;;;;;0.98;76.60;96332.88;5076774;28;20048;-75
2022/03/28 01:28:20;;;;;;;17.17;6.95;;;;;;;0.91;76.88;96333.81;5101479;28;20645;-75
2022/03/28 01:30:46;;;;;;;16.67;7.07;;;;;;;0.93;76.97;96334.41;5097415;28;20047;-75
2022/03/28 01:33:12;;;;;;;19.63;7.68;;;;;;;0.94;76.96;96339.41;5097650;28;20512;-75
2022/03/28 01:35:40;;;;;;;13.10;6.40;;;;;;;0.98;77.05;96332.06;5110507;28;20051;-75
2022/03/28 01:38:08;;;;;;;17.23;7.22;;;;;;;0.97;76.83;96335.66;5104302;28;20040;-75
2022/03/28 01:40:36;;;;;;;13.77;6.85;;;;;;;0.99;76.97;96328.47;5089476;28;20040;-75
2022/03/28 01:43:02;;;;;;;16.50;6.63;;;;;;;0.83;77.57;96316.59;5087271;28;20036;-75
2022/03/28 01:45:28;;;;;;;19.98;6.78;;;;;;;0.80;77.39;96315.16;5080492;28;20040;-75
2022/03/28 01:47:54;;;;;;;14.93;7.15;;;;;;;0.83;77.18;96314.00;5073417;28;20045;-75
2022/03/28 01:50:21;;;;;;;21.67;6.63;;;;;;;0.85;77.26;96318.00;5091275;28;20497;-75
2022/03/28 01:52:47;;;;;;;13.90;6.72;;;;;;;0.93;76.92;96311.09;5091152;28;20071;-75
2022/03/28 01:55:13;;;;;;;19.38;6.80;;;;;;;0.88;77.00;96303.06;5101914;28;20063;-75
2022/03/28 01:57:40;;;;;;;12.82;6.45;;;;;;;0.80;77.62;96309.97;5110608;28;20535;-75
2022/03/28 02:00:08;;;;;;;13.07;6.28;;;;;;;0.78;77.32;96304.19;5107640;28;20040;-75
2022/03/28 02:02:34;;;;;;;14.70;6.65;;;;;;;0.76;77.93;96308.78;5073340;28;20055;-76
2022/03/28 02:05:00;;;;;;;13.45;6.70;;;;;;;0.66;78.26;96303.91;5091075;28;20595;-75
2022/03/28 02:07:25;;;;;;;14.18;6.45;;;;;;;0.67;78.41;96304.72;5074169;28;20116;-75
2022/03/28 02:09:51;;;;;;;15.45;6.78;;;;;;;0.77;77.74;96305.19;5107398;28;20550;-74
2022/03/28 02:12:17;;;;;;;14.45;6.45;;;;;;;0.75;77.81;96304.59;5095767;28;20562;-75
2022/03/28 02:14:42;;;;;;;11.80;6.35;;;;;;;0.69;77.88;96297.56;5090807;28;20093;-75
2022/03/28 02:17:08;;;;;;;13.48;6.90;;;;;;;0.55;78.25;96301.00;5103607;28;20046;-75
2022/03/28 02:19:34;;;;;;;13.20;6.70;;;;;;;0.50;78.58;96304.97;5104576;28;20047;-75
2022/03/28 02:22:00;;;;;;;13.55;6.40;;;;;;;0.51;78.66;96296.19;5096850;28;20515;-75
2022/03/28 02:24:25;;;;;;;15.77;6.45;;;;;;;0.56;78.77;96293.06;5104689;27;20061;-75
2022/03/28 02:26:51;;;;;;;12.18;6.20;;;;;;;0.57;78.73;96299.03;5081409;28;20040;-75
2022/03/28 02:29:17;;;;;;;17.00;7.07;;;;;;;0.51;78.45;96290.22;5084979;28;20036;-75
2022/03/28 02:31:43;;;;;;;12.98;6.30;;;;;;;0.45;79.11;96302.13;5084769;28;20035;-75
2022/03/28 02:34:08;;;;;;;14.32;6.90;;;;;;;0.48;78.44;96301.75;5097223;28;20043;-75
2022/03/28 02:36:34;;;;;;;14.32;6.80;;;;;;;0.45;79.26;96296.97;5095616;28;20048;-75
2022/03/28 02:39:00;;;;;;;14.38;7.03;;;;;;;0.43;79.59;96293.75;5091877;28;20059;-75
2022/03/28 02:41:25;;;;;;;11.55;6.05;;;;;;;0.37;78.89;96294.47;5097724;28;20106;-75
2022/03/28 02:43:52;;;;;;;15.10;6.63;;;;;;;0.27;79.95;96294.00;5089909;28;20055;-75
2022/03/28 02:46:18;;;;;;;14.13;6.45;;;;;;;0.33;79.75;96298.41;5094994;28;20058;-75
2022/03/28 02:48:44;;;;;;;14.63;6.53;;;;;;;0.38;79.54;96296.09;5079354;28;20489;-74
2022/03/28 02:51:09;;;;;;;13.52;6.32;;;;;;;0.30;79.90;96294.44;5103404;28;20051;-74
2022/03/28 02:53:35;;;;;;;12.93;6.72;;;;;;;0.32;79.83;96291.66;5095821;28;20437;-75
2022/03/28 02:56:00;;;;;;;13.50;6.45;;;;;;;0.26;80.49;96289.78;5076226;28;20040;-75
2022/03/28 02:58:26;;;;;;;13.95;6.95;;;;;;;0.31;80.07;96290.06;5095935;28;20048;-74
2022/03/28 03:00:52;;;;;;;15.15;6.45;;;;;;;0.29;79.77;96286.84;5092184;28;20035;-75
2022/03/28 03:03:17;;;;;;;13.23;6.97;;;;;;;0.31;79.73;96290.06;5080580;28;20044;-75
2022/03/28 03:05:43;;;;;;;14.10;6.45;;;;;;;0.36;79.97;96298.09;5090065;28;20040;-76
2022/03/28 03:08:09;;;;;;;15.98;6.63;;;;;;;0.42;79.91;96292.16;5071827;28;20642;-76
2022/03/28 03:10:34;;;;;;;13.88;6.72;;;;;;;0.30;79.86;96283.25;5089844;28;20047;-76
2022/03/28 03:13:00;;;;;;;12.40;6.53;;;;;;;0.16;80.17;96283.16;5101770;28;20044;-76
2022/03/28 03:15:26;;;;;;;14.50;7.38;;;;;;;0.16;80.60;96285.72;5101453;28;20433;-76
2022/03/28 03:17:52;;;;;;;13.40;6.93;;;;;;;0.20;80.56;96287.94;5096927;28;20042;-76
2022/03/28 03:20:17;;;;;;;13.88;6.70;;;;;;;0.21;80.42;96284.38;5102943;28;20044;-76
2022/03/28 03:22:43;;;;;;;14.75;7.13;;;;;;;0.19;81.05;96286.34;5085623;28;20494;-76
2022/03/28 03:25:08;;;;;;;14.15;7.05;;;;;;;0.14;81.02;96285.13;5089290;28;20043;-76
2022/03/28 03:27:38;;;;;;;14.60;7.20;;;;;;;0.05;81.42;96291.38;5104747;28;20048;-76
2022/03/28 03:30:08;;;;;;;16.27;7.47;;;;;;;0.03;81.68;96288.19;5071528;28;20048;-76
2022/03/28 03:32:35;;;;;;;13.35;6.88;;;;;;;0.03;81.85;96298.56;5089594;28;20114;-76
2022/03/28 03:35:04;;;;;;;17.23;7.65;;;;;;;0.01;81.81;96290.16;5071309;28;20051;-76
2022/03/28 03:37:30;;;;;;;14.27;7.30;;;;;;;0.08;81.67;96292.81;5089948;28;20048;-76
2022/03/28 03:39:56;;;;;;;14.90;6.82;;;;;;;-0.02;82.10;96295.69;5108810;28;20093;-76
2022/03/28 03:42:21;;;;;;;16.65;7.18;;;;;;;0.00;82.36;96296.34;5099260;28;20122;-76
2022/03/28 03:44:47;;;;;;;14.02;6.82;;;;;;;0.01;82.01;96295.31;5082516;28;20142;-75
2022/03/28 03:47:12;;;;;;;18.25;7.63;;;;;;;0.08;81.80;96285.84;5083244;28;20071;-76
2022/03/28 03:49:38;;;;;;;15.30;6.78;;;;;;;0.05;82.14;96293.97;5083591;28;20043;-75
2022/03/28 03:52:04;;;;;;;18.50;7.38;;;;;;;-0.04;82.00;96287.31;5089438;28;20044;-76
2022/03/28 03:54:30;;;;;;;13.35;6.93;;;;;;;-0.14;82.58;96297.13;5088715;28;20055;-76
2022/03/28 03:56:56;;;;;;;13.43;6.53;;;;;;;-0.18;82.34;96292.34;5089190;28;20052;-77
2022/03/28 03:59:22;;;;;;;16.70;6.32;;;;;;;-0.15;82.41;96287.81;5088949;28;20048;-76
2022/03/28 04:01:47;;;;;;;14.00;6.38;;;;;;;-0.06;82.06;96290.09;5101030;28;20164;-76
2022/03/28 04:04:13;;;;;;;12.48;6.60;;;;;;;-0.13;82.37;96288.41;5101832;28;20059;-75
2022/03/28 04:06:39;;;;;;;16.40;7.30;;;;;;;-0.19;82.50;96285.59;5107797;28;20147;-75
2022/03/28 04:09:06;;;;;;;16.27;7.18;;;;;;;-0.16;82.35;96293.94;5084807;28;20097;-75
2022/03/28 04:11:31;;;;;;;15.68;6.93;;;;;;;-0.25;82.97;96291.47;5090718;28;20122;-75
2022/03/28 04:13:57;;;;;;;14.48;6.82;;;;;;;-0.24;82.85;96287.09;5107698;28;20039;-75
2022/03/28 04:16:23;;;;;;;16.52;7.00;;;;;;;-0.25;82.73;96291.47;5104846;28;20051;-76
2022/03/28 04:18:49;;;;;;;14.20;6.85;;;;;;;-0.27;82.59;96288.25;5074793;28;20127;-76
2022/03/28 04:21:15;;;;;;;14.93;7.05;;;;;;;-0.27;83.35;96283.09;5097208;28;20036;-77
2022/03/28 04:23:40;;;;;;;14.23;6.50;;;;;;;-0.19;82.28;96280.41;5096067;28;20046;-76
2022/03/28 04:26:06;;;;;;;19.02;6.70;;;;;;;-0.13;82.21;96278.06;5083267;28;20055;-76
2022/03/28 04:28:31;;;;;;;16.38;6.93;;;;;;;-0.29;82.88;96279.06;5102661;28;20528;-76
2022/03/28 04:30:57;;;;;;;14.02;7.35;;;;;;;-0.24;82.58;96285.31;5091637;28;20040;-76
2022/03/28 04:33:22;;;;;;;13.77;6.38;;;;;;;-0.38;83.72;96280.97;5088476;28;20040;-76
2022/03/28 04:35:48;;;;;;;16.92;7.10;;;;;;;-0.32;83.44;96285.41;5104311;28;20122;-76
2022/03/28 04:38:14;;;;;;;15.90;7.00;;;;;;;-0.33;83.07;96273.47;5077843;28;20048;-76
2022/03/28 04:40:40;;;;;;;18.73;7.43;;;;;;;-0.27;83.82;96282.31;5090840;28;20054;-76
2022/03/28 04:43:06;;;;;;;17.15;7.47;;;;;;;-0.25;83.65;96275.94;5082852;28;20032;-76
2022/03/28 04:45:32;;;;;;;13.45;6.97;;;;;;;-0.40;84.44;96282.94;5073413;28;20048;-76
2022/03/28 04:47:58;;;;;;;17.80;7.88;;;;;;;-0.41;85.06;96287.28;5080366;28;20031;-76
2022/03/28 04:50:25;;;;;;;21.40;7.97;;;;;;;-0.24;84.23;96287.91;5094842;28;20386;-76
2022/03/28 04:52:50;;;;;;;16.60;7.60;;;;;;;-0.33;84.38;96278.66;5093096;28;20040;-76
2022/03/28 04:55:16;;;;;;;17.30;7.55;;;;;;;-0.41;84.52;96278.75;5092124;28;20073;-76
2022/03/28 04:57:42;;;;;;;18.33;7.93;;;;;;;-0.42;85.03;96284.91;5092254;28;20051;-76
2022/03/28 05:00:09;;;;;;;17.85;8.35;;;;;;;-0.44;84.62;96276.53;5093530;27;20112;-74
2022/03/28 05:02:36;;;;;;;21.70;8.23;;;;;;;-0.30;85.29;96283.47;5114537;27;20096;-75
2022/03/28 05:05:06;;;;;;;19.20;8.02;;;;;;;-0.34;84.86;96271.88;5094025;28;20119;-75
2022/03/28 05:07:31;;;;;;;18.95;8.05;;;;;;;-0.44;85.18;96271.34;5079689;28;20450;-75
2022/03/28 05:09:58;;;;;;;21.23;8.23;;;;;;;-0.43;85.17;96280.69;5099648;28;20040;-75
2022/03/28 05:12:25;;;;;;;19.75;8.02;;;;;;;-0.43;85.47;96278.13;5092271;28;20086;-75
2022/03/28 05:14:51;;;;;;;21.20;8.55;;;;;;;-0.27;85.36;96277.13;5084664;28;20169;-74
2022/03/28 05:17:25;;;;;;;22.42;8.00;;;;;;;-0.29;85.48;96274.69;5086039;28;20528;-74
2022/03/28 05:19:52;;;;;;;17.80;8.18;;;;;;;-0.32;85.38;96274.28;5092798;28;20047;-75
2022/03/28 05:22:19;;;;;;;20.73;8.60;;;;;;;-0.41;87.17;96273.56;5102958;28;20038;-73
2022/03/28 05:24:45;;;;;;;22.13;8.55;;;;;;;-0.36;86.99;96273.81;5086573;28;20050;-72
2022/03/28 05:27:11;;;;;;;18.15;8.35;;;;;;;-0.27;86.08;96272.75;5086929;28;20405;-73
2022/03/28 05:29:36;;;;;;;19.20;8.25;;;;;;;-0.13;85.54;96278.06;5097831;28;20036;-73
2022/03/28 05:32:03;;;;;;;21.85;8.00;;;;;;;-0.23;85.52;96268.81;5111466;28;20035;-73
2022/03/28 05:34:30;;;;;;;25.80;8.82;;;;;;;-0.26;86.61;96274.34;5085493;28;20088;-73
2022/03/28 05:37:00;;;;;;;18.80;8.95;;;;;;;-0.20;85.62;96268.44;5097045;28;20039;-74
2022/03/28 05:39:26;;;;;;;17.52;8.20;;;;;;;-0.11;85.97;96270.94;5110229;28;20044;-74
2022/03/28 05:41:52;;;;;;;25.92;8.95;;;;;;;-0.08;85.84;96265.38;5096657;27;20093;-73
2022/03/28 05:44:19;;;;;;;30.75;9.02;;;;;;;-0.03;86.26;96268.22;5104119;28;20036;-73
2022/03/28 05:46:47;;;;;;;27.48;8.80;;;;;;;-0.01;85.99;96266.25;5101185;28;20546;-73
2022/03/28 05:49:18;;;;;;;19.40;8.23;;;;;;;0.12;85.50;96271.56;5091991;28;20390;-73
2022/03/28 05:51:43;;;;;;;24.38;9.23;;;;;;;0.19;85.14;96270.81;5102875;28;20043;-72
2022/03/28 05:54:09;;;;;;;24.30;9.02;;;;;;;0.21;85.80;96263.69;5101566;28;20043;-72
2022/03/28 05:56:35;;;;;;;20.02;8.82;;;;;;;0.26;85.45;96266.50;5091610;28;20140;-72
2022/03/28 05:59:02;;;;;;;17.45;8.40;;;;;;;0.33;85.86;96262.19;5089899;28;20035;-72
2022/03/28 06:01:29;;;;;;;16.13;7.68;;;;;;;0.42;85.76;96266.25;5080037;28;20047;-72
2022/03/28 06:03:54;;;;;;;20.15;8.00;;;;;;;0.49;86.37;96261.94;5106531;28;20040;-76
2022/03/28 06:06:20;;;;;;;22.30;9.15;;;;;;;0.59;86.11;96260.78;5090219;28;20085;-75
2022/03/28 06:08:45;;;;;;;25.73;8.23;;;;;;;0.68;86.35;96259.69;5088867;28;20762;-74
2022/03/28 06:11:11;;;;;;;22.55;8.60;;;;;;;0.82;85.58;96260.56;5081360;28;20036;-74
2022/03/28 06:13:37;;;;;;;26.65;9.05;;;;;;;0.81;86.07;96264.94;5098231;28;20039;-73
2022/03/28 06:16:04;;;;;;;32.08;8.55;;;;;;;0.88;85.80;96269.38;5089150;28;20625;-73
2022/03/28 06:18:30;;;;;;;19.35;8.77;;;;;;;1.01;85.74;96262.50;5091251;28;20044;-73
2022/03/28 06:20:55;;;;;;;20.70;9.20;;;;;;;1.08;85.87;96264.31;5079332;28;20047;-73
2022/03/28 06:23:21;;;;;;;24.98;8.85;;;;;;;1.16;86.25;96261.59;5090980;28;20048;-73
2022/03/28 06:25:47;;;;;;;21.63;8.50;;;;;;;1.45;85.56;96272.69;5096111;28;20040;-74
2022/03/28 06:28:15;;;;;;;23.02;8.70;;;;;;;1.47;85.54;96268.91;5092476;28;20043;-74
2022/03/28 06:30:41;;;;;;;21.83;8.77;;;;;;;1.49;85.56;96277.31;5109119;28;20039;-74
2022/03/28 06:33:06;;;;;;;22.42;8.77;;;;;;;1.56;85.79;96272.16;5111052;28;20126;-74
2022/03/28 06:35:32;;;;;;;22.17;9.20;;;;;;;1.64;85.43;96276.38;5108141;28;20039;-73
2022/03/28 06:37:57;;;;;;;25.45;10.05;;;;;;;1.70;86.17;96275.59;5093826;28;20051;-73
2022/03/28 06:40:24;;;;;;;29.73;10.40;;;;;;;1.77;85.94;96273.84;5090879;28;20036;-74
2022/03/28 06:42:49;;;;;;;22.02;9.85;;;;;;;1.88;86.08;96278.47;5090346;28;20097;-74
2022/03/28 06:45:15;;;;;;;28.13;9.60;;;;;;;2.08;87.17;96275.09;5072700;28;20036;-74
2022/03/28 06:47:41;;;;;;;23.80;10.02;;;;;;;2.37;88.13;96273.16;5073381;28;20062;-74
2022/03/28 06:50:08;;;;;;;20.25;9.05;;;;;;;2.94;84.55;96274.38;5101745;28;20425;-74
2022/03/28 06:52:35;;;;;;;17.98;9.45;;;;;;;3.58;83.33;96274.63;5098267;28;20408;-74
2022/03/28 06:55:01;;;;;;;17.55;9.57;;;;;;;3.66;83.32;96259.78;5084589;28;20043;-73
2022/03/28 06:57:27;;;;;;;15.07;9.00;;;;;;;3.78;81.91;96263.34;5091847;28;20424;-73
2022/03/28 06:59:53;;;;;;;30.40;10.32;;;;;;;3.89;81.88;96254.06;5097552;28;20051;-73
2022/03/28 07:02:19;;;;;;;16.95;8.18;;;;;;;4.33;78.81;96261.00;5074705;28;20044;-74
2022/03/28 07:04:45;;;;;;;18.92;8.85;;;;;;;5.09;75.05;96257.63;5104190;28;20043;-73
2022/03/28 07:07:12;;;;;;;18.20;8.88;;;;;;;5.53;73.95;96259.16;5103014;28;20074;-73
2022/03/28 07:09:38;;;;;;;19.58;8.82;;;;;;;5.80;71.77;96250.97;5075374;28;20390;-74
2022/03/28 07:12:05;;;;;;;14.68;8.38;;;;;;;6.15;70.09;96250.38;5089377;28;20046;-75
2022/03/28 07:14:34;;;;;;;17.50;8.82;;;;;;;6.17;69.82;96247.53;5097869;27;20466;-73
2022/03/28 07:17:00;;;;;;;21.10;8.90;;;;;;;6.38;69.82;96249.63;5105774;28;20039;-75
2022/03/28 07:19:26;;;;;;;19.08;9.25;;;;;;;6.45;69.07;96256.56;5078736;28;20050;-75
2022/03/28 07:21:52;;;;;;;24.75;8.95;;;;;;;6.79;66.47;96254.25;5089979;28;20044;-74
2022/03/28 07:24:18;;;;;;;16.25;9.27;;;;;;;6.87;68.09;96243.44;5097527;27;20040;-74
2022/03/28 07:26:48;;;;;;;16.95;9.20;;;;;;;7.18;65.61;96246.72;5071593;28;20045;-74
2022/03/28 07:29:17;;;;;;;22.42;8.38;;;;;;;7.43;64.98;96242.03;5089875;28;20040;-75
2022/03/28 07:31:44;;;;;;;15.98;8.20;;;;;;;7.41;66.14;96236.22;5089822;28;20043;-74
2022/03/28 07:36:54;;;;;;;14.88;7.82;;;;;;;7.43;63.77;96234.16;5090924;28;20055;-74
2022/03/28 07:39:20;;;;;;;14.63;8.50;;;;;;;7.77;61.35;96223.03;5071608;28;20036;-74
2022/03/28 07:41:47;;;;;;;15.15;8.10;;;;;;;8.39;59.56;96229.34;5089607;28;20036;-74
2022/03/28 07:44:13;;;;;;;14.23;8.00;;;;;;;8.57;60.54;96220.50;5089480;28;20036;-73
2022/03/28 07:46:39;;;;;;;14.98;8.63;;;;;;;8.46;59.62;96225.56;5096592;27;20035;-74
2022/03/28 07:49:05;;;;;;;16.98;8.60;;;;;;;8.40;60.30;96229.09;5119011;27;20047;-74
2022/03/28 07:51:31;;;;;;;16.58;8.15;;;;;;;8.58;58.45;96227.34;5130794;27;20584;-73
2022/03/28 07:53:57;;;;;;;14.32;8.57;;;;;;;8.99;57.95;96227.94;5115944;27;20051;-74
2022/03/28 07:56:22;;;;;;;16.67;8.68;;;;;;;9.04;58.84;96230.63;5089026;28;20417;-74
2022/03/28 07:58:48;;;;;;;16.02;8.82;;;;;;;9.09;58.19;96230.69;5096928;28;20043;-74
2022/03/28 08:01:13;;;;;;;16.88;8.88;;;;;;;9.56;57.45;96226.03;5089543;28;20046;-74
2022/03/28 08:03:39;;;;;;;18.75;9.23;;;;;;;9.31;58.49;96225.47;5078363;28;20119;-78
2022/03/28 08:06:04;;;;;;;19.25;9.35;;;;;;;9.76;55.95;96223.66;5071512;28;20452;-76
2022/03/28 08:08:32;;;;;;;16.98;9.45;;;;;;;9.65;56.05;96224.56;5089484;28;20085;-73
2022/03/28 08:10:59;;;;;;;19.35;9.70;;;;;;;9.68;55.75;96224.06;5089641;28;20040;-75
2022/03/28 08:13:24;;;;;;;16.50;9.30;;;;;;;9.67;55.98;96223.28;5071649;28;20044;-77
2022/03/28 08:15:50;;;;;;;20.52;10.23;;;;;;;9.98;53.98;96212.28;5090777;28;20071;-75
2022/03/28 08:18:16;;;;;;;21.60;10.02;;;;;;;9.83;54.99;96216.34;5089338;28;20040;-78
2022/03/28 08:20:43;;;;;;;22.63;10.20;;;;;;;10.09;53.01;96214.00;5071488;28;20162;-78
2022/03/28 08:23:09;;;;;;;18.38;9.95;;;;;;;10.45;51.50;96216.19;5072981;28;20043;-74
2022/03/28 08:25:35;;;;;;;22.45;9.63;;;;;;;10.29;52.70;96212.59;5094008;28;20039;-74
2022/03/28 08:28:02;;;;;;;21.17;9.80;;;;;;;10.41;53.70;96213.25;5093494;28;20105;-74
2022/03/28 08:30:27;;;;;;;21.95;10.38;;;;;;;10.40;52.05;96214.28;5093690;28;20036;-76
2022/03/28 08:32:55;;;;;;;23.98;9.85;;;;;;;10.44;52.31;96220.63;5105522;28;20103;-78
2022/03/28 08:35:21;;;;;;;20.55;10.00;;;;;;;10.47;53.12;96220.13;5095847;28;20653;-77
2022/03/28 08:37:47;;;;;;;26.35;10.93;;;;;;;10.50;52.67;96213.56;5091739;28;20048;-78
2022/03/28 08:40:16;;;;;;;19.73;10.45;;;;;;;10.81;51.51;96206.69;5101243;28;20044;-78
2022/03/28 08:42:43;;;;;;;19.30;9.95;;;;;;;11.04;50.97;96212.66;5102296;28;20096;-77
2022/03/28 08:45:11;;;;;;;21.88;11.20;;;;;;;11.12;49.94;96204.28;5103157;28;20169;-78
2022/03/28 08:47:42;;;;;;;24.08;10.93;;;;;;;11.45;49.62;96197.06;5076211;28;20044;-77
2022/03/28 08:50:10;;;;;;;24.95;10.95;;;;;;;11.51;50.01;96196.00;5077003;28;20510;-77
2022/03/28 08:52:40;;;;;;;20.33;10.82;;;;;;;11.64;47.78;96199.19;5076151;28;20067;-76
2022/03/28 08:55:10;;;;;;;25.35;11.30;;;;;;;11.57;48.80;96200.25;5075716;28;20044;-80
2022/03/28 08:57:37;;;;;;;20.73;10.38;;;;;;;11.66;47.62;96202.38;5098987;28;20108;-76
2022/03/28 09:00:08;;;;;;;22.60;11.07;;;;;;;11.73;47.83;96197.66;5104142;28;20081;-76
2022/03/28 09:02:47;;;;;;;23.40;11.88;;;;;;;11.77;48.09;96196.09;5092484;28;20047;-76
2022/03/28 09:05:14;;;;;;;23.33;11.10;;;;;;;11.88;46.87;96195.06;5075457;28;20111;-76
2022/03/28 09:07:40;;;;;;;24.25;11.55;;;;;;;11.91;47.05;96197.19;5074312;28;20511;-76
2022/03/28 09:10:12;;;;;;;21.20;10.98;;;;;;;12.06;46.05;96195.66;5092708;28;20043;-76
2022/03/28 09:12:56;;;;;;;24.75;11.75;;;;;;;12.28;45.58;96193.59;5074158;28;20161;-76
2022/03/28 09:15:23;;;;;;;21.10;10.93;;;;;;;12.32;46.86;96182.50;5105353;28;20046;-76
2022/03/28 09:17:56;;;;;;;27.30;11.90;;;;;;;12.47;45.01;96185.16;5112824;28;20046;-76
2022/03/28 09:20:23;;;;;;;21.50;11.90;;;;;;;12.60;44.95;96179.31;5112935;28;20047;-76
2022/03/28 09:22:49;;;;;;;25.20;11.52;;;;;;;12.77;44.69;96178.22;5082681;28;20569;-76
2022/03/28 09:25:17;;;;;;;25.55;11.55;;;;;;;13.02;43.31;96173.97;5092244;28;20040;-76
2022/03/28 09:27:49;;;;;;;24.27;11.90;;;;;;;13.51;41.86;96175.94;5092207;28;20040;-76
2022/03/28 09:30:19;;;;;;;26.85;11.82;;;;;;;13.74;41.80;96168.44;5093259;28;20134;-76
2022/03/28 09:32:48;;;;;;;24.48;11.75;;;;;;;13.51;41.32;96160.09;5091963;28;20063;-76
2022/03/28 09:35:26;;;;;;;26.55;12.15;;;;;;;13.40;41.53;96164.59;5099024;28;20039;-75
2022/03/28 09:38:04;;;;;;;22.60;11.73;;;;;;;13.33;41.20;96164.88;5113862;28;20047;-78
2022/03/28 09:40:44;;;;;;;26.05;12.30;;;;;;;13.34;41.84;96155.09;5095011;28;20051;-76
2022/03/28 09:43:22;;;;;;;31.95;12.32;;;;;;;13.64;40.68;96158.69;5089342;28;20508;-76
2022/03/28 09:45:50;;;;;;;22.67;11.18;;;;;;;13.77;42.10;96149.38;5090588;28;20068;-76
2022/03/28 09:48:19;;;;;;;20.58;11.82;;;;;;;13.80;41.82;96146.19;5073786;28;20119;-76
2022/03/28 09:50:56;;;;;;;27.20;12.05;;;;;;;13.88;40.78;96142.16;5073798;28;20074;-77
2022/03/28 09:53:25;;;;;;;26.67;11.98;;;;;;;13.80;40.66;96140.88;5101177;28;20046;-76
2022/03/28 09:55:56;;;;;;;23.23;12.25;;;;;;;13.96;40.33;96137.06;5105264;28;20036;-76
2022/03/28 09:58:48;;;;;;;29.63;12.35;;;;;;;14.29;39.68;96132.06;5091721;28;20474;-76
2022/03/28 10:02:07;;;;;;;23.83;11.35;;;;;;;14.64;38.66;96122.25;5073814;28;20066;-76
2022/03/28 10:04:35;;;;;;;24.58;12.23;;;;;;;15.18;37.29;96119.56;5074121;28;20040;-76
2022/03/28 10:07:02;;;;;;;23.88;12.30;;;;;;;15.56;37.89;96125.72;5073509;28;20047;-76
2022/03/28 10:09:27;;;;;;;26.60;12.40;;;;;;;15.79;36.18;96111.88;5073426;28;20417;-76
2022/03/28 10:11:53;;;;;;;21.38;11.82;;;;;;;16.01;35.27;96109.44;5091449;28;20050;-76
2022/03/28 10:14:18;;;;;;;24.92;12.48;;;;;;;16.13;35.46;96116.94;5091009;28;20619;-76
2022/03/28 10:16:47;;;;;;;23.92;12.70;;;;;;;16.41;34.88;96107.19;5073123;28;20455;-76
2022/03/28 10:19:15;;;;;;;22.95;12.15;;;;;;;16.78;33.77;96100.19;5091193;28;20040;-76
2022/03/28 10:21:40;;;;;;;22.75;13.05;;;;;;;17.48;32.22;96089.50;5091060;28;20044;-75
2022/03/28 10:24:29;;;;;;;27.33;12.73;;;;;;;18.03;31.73;96099.25;5090947;28;20048;-76
2022/03/28 10:26:59;;;;;;;22.88;12.45;;;;;;;19.01;30.66;96088.78;5091068;28;20186;-75
2022/03/28 10:29:34;;;;;;;25.63;12.77;;;;;;;19.74;29.11;96077.63;5072974;28;20047;-75
2022/03/28 10:32:03;;;;;;;22.88;12.52;;;;;;;19.92;28.76;96073.06;5090948;28;20116;-78
2022/03/28 10:35:00;;;;;;;24.35;13.25;;;;;;;20.16;28.59;96061.88;5095557;28;20036;-75
2022/03/28 10:37:30;;;;;;;24.20;13.45;;;;;;;21.23;27.67;96059.28;5102379;28;20123;-75
2022/03/28 10:40:23;;;;;;;28.60;14.15;;;;;;;20.05;28.43;96064.09;5096194;28;20114;-75
2022/03/28 10:42:58;;;;;;;26.35;13.55;;;;;;;20.59;27.56;96058.31;5105028;27;20040;-76
2022/03/28 10:45:37;;;;;;;27.30;14.43;;;;;;;21.13;26.78;96048.94;5103830;27;20043;-75
2022/03/28 10:48:08;;;;;;;24.88;13.30;;;;;;;21.66;24.69;96043.25;5111088;28;20413;-75
2022/03/28 10:50:43;;;;;;;26.30;13.45;;;;;;;22.04;24.47;96044.97;5111198;28;20036;-75
2022/03/28 10:53:16;;;;;;;23.85;14.30;;;;;;;22.16;25.28;96036.97;5094635;28;20164;-75
2022/03/28 10:55:51;;;;;;;23.02;14.18;;;;;;;21.77;23.98;96033.72;5090499;28;20036;-76
2022/03/28 10:58:50;;;;;;;24.45;14.07;;;;;;;22.14;24.39;96028.50;5103871;27;20428;-75
2022/03/28 11:01:21;;;;;;;23.38;14.02;;;;;;;21.81;24.53;96023.91;5110377;28;20059;-76
2022/03/28 11:03:52;;;;;;;24.73;14.27;;;;;;;22.00;24.80;96026.09;5104120;28;20513;-73
2022/03/28 11:06:20;;;;;;;26.90;14.18;;;;;;;22.53;23.34;96018.31;5089904;28;20043;-74
2022/03/28 11:09:00;;;;;;;23.67;14.30;;;;;;;23.33;23.70;96014.25;5072406;28;20040;-74
2022/03/28 11:11:30;;;;;;;26.35;15.10;;;;;;;23.82;21.38;95996.38;5090942;28;20043;-74
2022/03/28 11:14:08;;;;;;;26.83;14.93;;;;;;;23.51;22.37;95987.13;5090997;28;20436;-75
2022/03/28 11:16:43;;;;;;;24.63;15.02;;;;;;;23.89;20.96;95980.47;5117175;27;20446;-76
2022/03/28 11:19:24;;;;;;;24.67;15.30;;;;;;;23.69;21.80;95983.00;5110670;27;20063;-75
2022/03/28 11:22:08;;;;;;;26.30;15.60;;;;;;;23.48;22.52;95982.44;5100440;28;20043;-76
2022/03/28 11:24:51;;;;;;;26.15;15.88;;;;;;;24.04;22.53;95971.66;5110183;28;20118;-76
2022/03/28 11:27:19;;;;;;;35.63;15.85;;;;;;;24.23;21.93;95967.50;5101269;27;20054;-76
2022/03/28 11:29:46;;;;;;;33.47;17.90;;;;;;;21.97;24.00;95968.59;5113426;27;20101;-75
2022/03/28 11:32:18;;;;;;;30.80;16.70;;;;;;;23.99;22.65;95952.31;5131206;27;20039;-76